createdAt,value
2019-02-14T00:00:30.794Z,403
2019-02-14T00:01:37.990Z,405
2019-02-14T00:02:45.242Z,404
2019-02-14T00:03:52.437Z,405
2019-02-14T00:04:59.638Z,406
2019-02-14T00:06:06.826Z,406
2019-02-14T00:07:14.043Z,407
2019-02-14T00:08:21.237Z,406
2019-02-14T00:09:28.442Z,406
2019-02-14T00:10:35.632Z,405
2019-02-14T00:11:42.542Z,405
2019-02-14T00:12:49.731Z,404
2019-02-14T00:13:56.927Z,404
2019-02-14T00:15:04.122Z,403
2019-02-14T00:16:11.044Z,405
2019-02-14T00:17:17.960Z,404
2019-02-14T00:18:24.877Z,404
2019-02-14T00:19:32.066Z,404
2019-02-14T00:20:39.313Z,404
2019-02-14T00:21:46.228Z,405
2019-02-14T00:22:53.421Z,406
2019-02-14T00:24:00.337Z,406
2019-02-14T00:25:07.543Z,406
2019-02-14T00:26:14.669Z,406
2019-02-14T00:27:21.866Z,405
2019-02-14T00:28:28.783Z,404
2019-02-14T00:29:35.701Z,405
2019-02-14T00:30:42.899Z,404
2019-02-14T00:31:50.090Z,405
2019-02-14T00:32:57.019Z,404
2019-02-14T00:34:04.212Z,404
2019-02-14T00:35:11.138Z,404
2019-02-14T00:36:18.327Z,404
2019-02-14T00:37:25.257Z,405
2019-02-14T00:38:32.451Z,405
2019-02-14T00:39:39.643Z,405
2019-02-14T00:40:46.832Z,405
2019-02-14T00:41:54.020Z,406
2019-02-14T00:43:01.220Z,406
2019-02-14T00:44:07.869Z,406
2019-02-14T00:45:15.062Z,406
2019-02-14T00:46:22.254Z,406
2019-02-14T00:47:29.446Z,407
2019-02-14T00:48:36.639Z,407
2019-02-14T00:49:43.824Z,406
2019-02-14T00:50:50.743Z,406
2019-02-14T00:51:57.660Z,406
2019-02-14T00:53:04.847Z,406
2019-02-14T00:54:12.034Z,406
2019-02-14T00:55:19.228Z,406
2019-02-14T00:56:26.417Z,406
2019-02-14T00:57:33.332Z,405
2019-02-14T00:58:40.527Z,404
2019-02-14T00:59:47.718Z,405
2019-02-14T01:00:54.639Z,406
2019-02-14T01:02:01.557Z,406
2019-02-14T01:03:08.742Z,406
2019-02-14T01:04:15.933Z,406
2019-02-14T01:05:23.126Z,406
2019-02-14T01:06:30.318Z,406
2019-02-14T01:07:37.508Z,405
2019-02-14T01:08:44.699Z,405
2019-02-14T01:09:51.893Z,405
2019-02-14T01:10:59.086Z,405
2019-02-14T01:12:06.273Z,406
2019-02-14T01:13:13.460Z,406
2019-02-14T01:14:20.652Z,406
2019-02-14T01:15:27.843Z,407
2019-02-14T01:16:49.674Z,406
2019-02-14T01:17:56.866Z,406
2019-02-14T01:19:04.055Z,406
2019-02-14T01:20:11.244Z,406
2019-02-14T01:21:18.162Z,406
2019-02-14T01:22:25.349Z,406
2019-02-14T01:23:32.544Z,407
2019-02-14T01:24:39.735Z,405
2019-02-14T01:25:46.929Z,407
2019-02-14T01:26:53.843Z,407
2019-02-14T01:28:00.762Z,407
2019-02-14T01:29:07.955Z,407
2019-02-14T01:30:14.871Z,407
2019-02-14T01:31:22.067Z,408
2019-02-14T01:32:28.711Z,407
2019-02-14T01:33:35.896Z,408
2019-02-14T01:34:43.089Z,409
2019-02-14T01:35:50.279Z,408
2019-02-14T01:36:57.465Z,408
2019-02-14T01:38:04.659Z,408
2019-02-14T01:39:11.586Z,408
2019-02-14T01:40:18.513Z,407
2019-02-14T01:41:25.705Z,407
2019-02-14T01:42:32.627Z,406
2019-02-14T01:43:39.544Z,407
2019-02-14T01:44:46.735Z,407
2019-02-14T01:45:53.656Z,407
2019-02-14T01:47:00.845Z,407
2019-02-14T01:48:08.035Z,406
2019-02-14T01:49:15.221Z,406
2019-02-14T01:50:22.415Z,405
2019-02-14T01:51:29.326Z,406
2019-02-14T01:52:36.530Z,407
2019-02-14T01:53:43.714Z,408
2019-02-14T01:54:50.906Z,408
2019-02-14T01:55:58.104Z,408
2019-02-14T01:57:05.297Z,407
2019-02-14T01:58:12.499Z,407
2019-02-14T01:59:19.697Z,407
2019-02-14T02:00:26.887Z,406
2019-02-14T02:01:34.078Z,407
2019-02-14T02:02:41.272Z,407
2019-02-14T02:03:48.188Z,407
2019-02-14T02:04:54.818Z,408
2019-02-14T02:06:02.010Z,408
2019-02-14T02:07:09.201Z,407
2019-02-14T02:08:16.391Z,407
2019-02-14T02:09:23.575Z,406
2019-02-14T02:10:30.772Z,406
2019-02-14T02:11:37.982Z,407
2019-02-14T02:12:45.172Z,408
2019-02-14T02:13:52.369Z,407
2019-02-14T02:14:59.552Z,408
2019-02-14T02:16:06.472Z,409
2019-02-14T02:17:13.659Z,408
2019-02-14T02:18:20.851Z,408
2019-02-14T02:19:27.777Z,407
2019-02-14T02:20:34.970Z,407
2019-02-14T02:21:42.160Z,406
2019-02-14T02:22:49.359Z,407
2019-02-14T02:23:56.280Z,407
2019-02-14T02:25:03.195Z,407
2019-02-14T02:26:10.388Z,407
2019-02-14T02:27:17.586Z,407
2019-02-14T02:28:24.776Z,407
2019-02-14T02:29:31.965Z,407
2019-02-14T02:30:39.159Z,407
2019-02-14T02:31:46.351Z,406
2019-02-14T02:32:53.276Z,406
2019-02-14T02:34:00.195Z,406
2019-02-14T02:35:07.112Z,407
2019-02-14T02:36:14.032Z,407
2019-02-14T02:37:21.225Z,407
2019-02-14T02:38:28.139Z,408
2019-02-14T02:39:35.333Z,407
2019-02-14T02:40:42.526Z,407
2019-02-14T02:41:49.712Z,408
2019-02-14T02:42:56.629Z,408
2019-02-14T02:44:03.819Z,408
2019-02-14T02:45:11.018Z,408
2019-02-14T02:46:18.204Z,409
2019-02-14T02:47:25.406Z,408
2019-02-14T02:48:32.596Z,407
2019-02-14T02:49:39.505Z,408
2019-02-14T02:50:46.737Z,407
2019-02-14T02:51:53.662Z,408
2019-02-14T02:53:00.311Z,407
2019-02-14T02:54:07.501Z,406
2019-02-14T02:55:14.693Z,407
2019-02-14T02:56:21.886Z,407
2019-02-14T02:57:29.079Z,407
2019-02-14T02:58:36.268Z,408
2019-02-14T02:59:43.186Z,408
2019-02-14T03:00:50.378Z,408
2019-02-14T03:01:57.292Z,407
2019-02-14T03:03:04.333Z,407
2019-02-14T03:04:11.521Z,407
2019-02-14T03:05:18.719Z,408
2019-02-14T03:06:25.910Z,408
2019-02-14T03:07:33.107Z,407
2019-02-14T03:08:40.295Z,408
2019-02-14T03:09:47.211Z,407
2019-02-14T03:10:55.166Z,407
2019-02-14T03:12:02.385Z,407
2019-02-14T03:13:09.299Z,407
2019-02-14T03:14:16.491Z,407
2019-02-14T03:15:23.685Z,407
2019-02-14T03:16:30.603Z,407
2019-02-14T03:17:37.792Z,407
2019-02-14T03:18:44.983Z,407
2019-02-14T03:19:51.902Z,406
2019-02-14T03:20:58.544Z,406
2019-02-14T03:22:05.739Z,407
2019-02-14T03:23:12.925Z,407
2019-02-14T03:24:20.113Z,407
2019-02-14T03:25:27.055Z,407
2019-02-14T03:26:34.244Z,406
2019-02-14T03:27:41.439Z,406
2019-02-14T03:28:48.351Z,406
2019-02-14T03:29:55.543Z,407
2019-02-14T03:31:02.735Z,407
2019-02-14T03:32:09.933Z,407
2019-02-14T03:33:17.139Z,408
2019-02-14T03:34:24.058Z,408
2019-02-14T03:35:31.250Z,407
2019-02-14T03:36:38.168Z,408
2019-02-14T03:37:45.357Z,407
2019-02-14T03:38:52.546Z,407
2019-02-14T03:39:59.733Z,407
2019-02-14T03:41:06.922Z,406
2019-02-14T03:42:13.843Z,406
2019-02-14T03:43:21.036Z,407
2019-02-14T03:44:27.687Z,407
2019-02-14T03:45:34.882Z,407
2019-02-14T03:46:42.088Z,406
2019-02-14T03:47:49.025Z,407
2019-02-14T03:48:55.665Z,405
2019-02-14T03:50:02.862Z,406
2019-02-14T03:51:09.508Z,406
2019-02-14T03:52:16.698Z,404
2019-02-14T03:53:23.885Z,405
2019-02-14T03:54:31.072Z,405
2019-02-14T03:55:38.260Z,406
2019-02-14T03:56:45.455Z,406
2019-02-14T03:57:52.645Z,405
2019-02-14T03:58:59.291Z,406
2019-02-14T04:00:06.208Z,405
2019-02-14T04:01:13.398Z,406
2019-02-14T04:02:20.589Z,407
2019-02-14T04:03:27.782Z,407
2019-02-14T04:04:34.703Z,407
2019-02-14T04:05:41.897Z,406
2019-02-14T04:06:48.811Z,406
2019-02-14T04:07:55.999Z,406
2019-02-14T04:09:03.190Z,406
2019-02-14T04:10:10.383Z,406
2019-02-14T04:11:17.575Z,407
2019-02-14T04:12:24.771Z,407
2019-02-14T04:13:31.964Z,407
2019-02-14T04:14:39.153Z,407
2019-02-14T04:15:46.344Z,408
2019-02-14T04:16:53.262Z,407
2019-02-14T04:18:00.456Z,408
2019-02-14T04:19:07.643Z,407
2019-02-14T04:20:14.830Z,407
2019-02-14T04:21:22.028Z,407
2019-02-14T04:22:29.223Z,407
2019-02-14T04:23:36.146Z,407
2019-02-14T04:24:43.060Z,408
2019-02-14T04:25:50.274Z,408
2019-02-14T04:26:57.460Z,407
2019-02-14T04:28:04.654Z,407
2019-02-14T04:29:11.572Z,408
2019-02-14T04:30:18.764Z,408
2019-02-14T04:31:25.711Z,409
2019-02-14T04:32:32.901Z,408
2019-02-14T04:33:40.084Z,408
2019-02-14T04:34:47.275Z,408
2019-02-14T04:35:54.467Z,409
2019-02-14T04:37:01.655Z,409
2019-02-14T04:38:08.841Z,409
2019-02-14T04:39:16.036Z,409
2019-02-14T04:40:23.222Z,408
2019-02-14T04:41:30.409Z,408
2019-02-14T04:42:37.597Z,408
2019-02-14T04:43:44.513Z,408
2019-02-14T04:44:51.702Z,409
2019-02-14T04:45:58.894Z,409
2019-02-14T04:47:05.812Z,408
2019-02-14T04:48:12.994Z,407
2019-02-14T04:49:19.920Z,408
2019-02-14T04:50:27.118Z,407
2019-02-14T04:51:34.308Z,407
2019-02-14T04:52:41.526Z,407
2019-02-14T04:53:48.715Z,407
2019-02-14T04:54:55.905Z,407
2019-02-14T04:56:03.093Z,408
2019-02-14T04:57:10.280Z,408
2019-02-14T04:58:17.474Z,408
2019-02-14T04:59:24.667Z,409
2019-02-14T05:00:31.584Z,408
2019-02-14T05:01:38.503Z,409
2019-02-14T05:02:45.695Z,409
2019-02-14T05:03:52.883Z,409
2019-02-14T05:04:59.809Z,409
2019-02-14T05:06:07.050Z,409
2019-02-14T05:07:14.241Z,409
2019-02-14T05:08:21.428Z,410
2019-02-14T05:09:28.622Z,410
2019-02-14T05:10:35.806Z,410
2019-02-14T05:11:42.997Z,410
2019-02-14T05:12:50.187Z,411
2019-02-14T05:13:57.375Z,410
2019-02-14T05:15:04.594Z,410
2019-02-14T05:16:11.781Z,410
2019-02-14T05:17:18.968Z,410
2019-02-14T05:18:26.164Z,410
2019-02-14T05:19:33.355Z,410
2019-02-14T05:20:40.543Z,410
2019-02-14T05:21:47.739Z,410
2019-02-14T05:22:54.656Z,410
2019-02-14T05:24:01.850Z,411
2019-02-14T05:25:08.765Z,411
2019-02-14T05:26:15.953Z,410
2019-02-14T05:27:23.156Z,410
2019-02-14T05:28:30.069Z,411
2019-02-14T05:29:36.984Z,411
2019-02-14T05:30:44.173Z,409
2019-02-14T05:31:50.820Z,409
2019-02-14T05:32:58.037Z,409
2019-02-14T05:34:04.956Z,410
2019-02-14T05:35:12.144Z,410
2019-02-14T05:36:19.330Z,411
2019-02-14T05:37:26.528Z,412
2019-02-14T05:38:33.438Z,412
2019-02-14T05:39:40.628Z,411
2019-02-14T05:40:47.815Z,411
2019-02-14T05:41:54.742Z,410
2019-02-14T05:43:01.657Z,410
2019-02-14T05:44:08.575Z,411
2019-02-14T05:45:15.493Z,411
2019-02-14T05:46:22.678Z,412
2019-02-14T05:47:29.868Z,412
2019-02-14T05:48:37.059Z,411
2019-02-14T05:49:45.881Z,411
2019-02-14T05:50:53.075Z,410
2019-02-14T05:52:00.269Z,411
2019-02-14T05:53:07.466Z,410
2019-02-14T05:54:14.664Z,411
2019-02-14T05:55:21.848Z,411
2019-02-14T05:56:28.781Z,411
2019-02-14T05:57:35.972Z,411
2019-02-14T05:58:43.168Z,411
2019-02-14T05:59:50.357Z,411
2019-02-14T06:00:57.544Z,410
2019-02-14T06:02:04.735Z,410
2019-02-14T06:03:11.662Z,410
2019-02-14T06:04:18.859Z,410
2019-02-14T06:05:26.051Z,411
2019-02-14T06:06:33.239Z,410
2019-02-14T06:07:40.428Z,411
2019-02-14T06:08:47.624Z,411
2019-02-14T06:09:54.814Z,412
2019-02-14T06:11:02.006Z,412
2019-02-14T06:12:09.191Z,411
2019-02-14T06:13:16.391Z,412
2019-02-14T06:14:23.576Z,412
2019-02-14T06:15:30.771Z,412
2019-02-14T06:16:37.964Z,412
2019-02-14T06:17:45.157Z,412
2019-02-14T06:18:52.346Z,411
2019-02-14T06:19:59.529Z,412
2019-02-14T06:21:06.717Z,412
2019-02-14T06:22:13.906Z,411
2019-02-14T06:23:21.090Z,412
2019-02-14T06:24:28.277Z,412
2019-02-14T06:25:35.467Z,411
2019-02-14T06:26:42.381Z,412
2019-02-14T06:27:49.296Z,411
2019-02-14T06:28:56.490Z,412
2019-02-14T06:30:03.404Z,411
2019-02-14T06:31:10.591Z,411
2019-02-14T06:32:17.783Z,412
2019-02-14T06:33:24.974Z,412
2019-02-14T06:34:32.167Z,412
2019-02-14T06:35:39.081Z,413
2019-02-14T06:36:46.270Z,412
2019-02-14T06:37:53.460Z,413
2019-02-14T06:39:00.647Z,412
2019-02-14T06:40:07.567Z,411
2019-02-14T06:41:14.483Z,411
2019-02-14T06:42:21.677Z,411
2019-02-14T06:43:28.869Z,411
2019-02-14T06:44:36.062Z,412
2019-02-14T06:45:43.272Z,411
2019-02-14T06:46:49.915Z,411
2019-02-14T06:47:57.111Z,411
2019-02-14T06:49:04.291Z,411
2019-02-14T06:50:11.206Z,410
2019-02-14T06:51:18.395Z,410
2019-02-14T06:52:25.589Z,410
2019-02-14T06:53:32.503Z,411
2019-02-14T06:54:39.702Z,410
2019-02-14T06:55:46.894Z,410
2019-02-14T06:56:54.086Z,410
2019-02-14T06:58:00.721Z,410
2019-02-14T06:59:07.901Z,410
2019-02-14T07:00:15.087Z,410
2019-02-14T07:01:22.275Z,410
2019-02-14T07:02:29.469Z,409
2019-02-14T07:03:36.662Z,410
2019-02-14T07:04:43.577Z,410
2019-02-14T07:05:50.497Z,410
2019-02-14T07:06:57.685Z,410
2019-02-14T07:08:04.872Z,410
2019-02-14T07:09:12.062Z,409
2019-02-14T07:10:19.252Z,408
2019-02-14T07:11:26.437Z,408
2019-02-14T07:12:33.650Z,409
2019-02-14T07:13:40.568Z,408
2019-02-14T07:14:47.760Z,408
2019-02-14T07:15:54.953Z,408
2019-02-14T07:17:02.140Z,407
2019-02-14T07:18:09.326Z,407
2019-02-14T07:19:16.527Z,408
2019-02-14T07:20:23.727Z,408
2019-02-14T07:21:30.927Z,407
2019-02-14T07:22:38.117Z,407
2019-02-14T07:23:45.315Z,407
2019-02-14T07:24:52.504Z,407
2019-02-14T07:25:59.423Z,407
2019-02-14T07:27:06.618Z,407
2019-02-14T07:28:13.530Z,407
2019-02-14T07:29:20.451Z,406
2019-02-14T07:30:27.646Z,407
2019-02-14T07:31:34.836Z,406
2019-02-14T07:32:42.033Z,406
2019-02-14T07:33:49.226Z,405
2019-02-14T07:34:56.415Z,406
2019-02-14T07:36:03.605Z,405
2019-02-14T07:37:10.252Z,405
2019-02-14T07:38:17.444Z,405
2019-02-14T07:39:24.633Z,404
2019-02-14T07:40:31.825Z,404
2019-02-14T07:41:39.026Z,404
2019-02-14T07:42:46.243Z,403
2019-02-14T07:43:53.430Z,404
2019-02-14T07:45:00.729Z,404
2019-02-14T07:46:07.930Z,403
2019-02-14T07:47:15.121Z,403
2019-02-14T07:48:22.314Z,402
2019-02-14T07:49:29.500Z,402
2019-02-14T07:50:36.697Z,402
2019-02-14T07:51:43.883Z,402
2019-02-14T07:52:51.078Z,401
2019-02-14T07:53:57.991Z,400
2019-02-14T07:55:05.031Z,400
2019-02-14T07:56:12.353Z,399
2019-02-14T07:57:19.545Z,398
2019-02-14T07:58:26.477Z,397
2019-02-14T07:59:33.405Z,396
2019-02-14T08:00:40.600Z,395
2019-02-14T08:01:47.862Z,395
2019-02-14T08:02:56.923Z,395
2019-02-14T08:04:04.123Z,395
2019-02-14T08:05:11.311Z,396
2019-02-14T08:06:18.256Z,395
2019-02-14T08:07:25.451Z,395
2019-02-14T08:08:32.369Z,395
2019-02-14T08:09:39.020Z,396
2019-02-14T08:10:45.947Z,395
2019-02-14T08:11:52.863Z,395
2019-02-14T08:12:59.827Z,396
2019-02-14T08:14:07.025Z,396
2019-02-14T08:15:14.218Z,396
2019-02-14T08:16:20.863Z,396
2019-02-14T08:17:28.058Z,396
2019-02-14T08:18:35.252Z,395
2019-02-14T08:19:42.180Z,395
2019-02-14T08:20:49.381Z,395
2019-02-14T08:21:56.567Z,395
2019-02-14T08:23:03.488Z,395
2019-02-14T08:24:10.683Z,393
2019-02-14T08:25:17.605Z,392
2019-02-14T08:26:24.930Z,390
2019-02-14T08:27:32.121Z,389
2019-02-14T08:28:39.065Z,388
2019-02-14T08:29:45.985Z,387
2019-02-14T08:30:52.895Z,387
2019-02-14T08:32:00.090Z,386
2019-02-14T08:33:07.281Z,386
2019-02-14T08:34:14.470Z,385
2019-02-14T08:35:21.118Z,385
2019-02-14T08:36:28.303Z,384
2019-02-14T08:37:34.952Z,384
2019-02-14T08:38:42.144Z,384
2019-02-14T08:39:49.332Z,384
2019-02-14T08:40:56.410Z,384
2019-02-14T08:42:03.336Z,384
2019-02-14T08:43:10.523Z,385
2019-02-14T08:44:17.466Z,386
2019-02-14T08:45:24.646Z,387
2019-02-14T08:46:31.834Z,388
2019-02-14T08:47:39.019Z,388
2019-02-14T08:48:46.213Z,389
2019-02-14T08:49:53.402Z,389
2019-02-14T08:51:00.615Z,389
2019-02-14T08:52:07.808Z,390
2019-02-14T08:53:15.006Z,390
2019-02-14T08:54:21.939Z,390
2019-02-14T08:55:29.131Z,390
2019-02-14T08:56:36.340Z,390
2019-02-14T08:57:43.260Z,390
2019-02-14T08:58:49.908Z,389
2019-02-14T08:59:56.832Z,388
2019-02-14T09:01:04.023Z,388
2019-02-14T09:02:11.216Z,388
2019-02-14T09:03:18.409Z,388
2019-02-14T09:04:25.330Z,388
2019-02-14T09:05:32.521Z,388
2019-02-14T09:06:39.718Z,387
2019-02-14T09:07:55.691Z,388
2019-02-14T09:09:02.895Z,388
2019-02-14T09:10:10.096Z,387
2019-02-14T09:11:17.285Z,388
2019-02-14T09:12:24.478Z,388
2019-02-14T09:13:31.674Z,389
2019-02-14T09:14:38.879Z,389
2019-02-14T09:15:46.074Z,389
2019-02-14T09:16:53.003Z,388
2019-02-14T09:18:00.201Z,388
2019-02-14T09:19:07.122Z,386
2019-02-14T09:20:14.313Z,387
2019-02-14T09:21:21.507Z,386
2019-02-14T09:22:28.705Z,387
2019-02-14T09:23:35.632Z,386
2019-02-14T09:24:42.828Z,386
2019-02-14T09:25:50.022Z,386
2019-02-14T09:26:57.208Z,385
2019-02-14T09:28:04.404Z,384
2019-02-14T09:29:14.962Z,387
2019-02-14T09:30:22.155Z,385
2019-02-14T09:31:29.077Z,385
2019-02-14T09:32:36.269Z,383
2019-02-14T09:33:43.460Z,375
2019-02-14T09:34:50.654Z,375
2019-02-14T09:35:57.861Z,376
2019-02-14T09:37:05.051Z,376
2019-02-14T09:38:12.247Z,375
2019-02-14T09:39:19.441Z,376
2019-02-14T09:40:26.666Z,375
2019-02-14T09:41:33.596Z,376
2019-02-14T09:42:40.789Z,377
2019-02-14T09:43:47.973Z,376
2019-02-14T09:44:55.168Z,376
2019-02-14T09:46:02.355Z,376
2019-02-14T09:47:09.547Z,377
2019-02-14T09:48:16.735Z,377
2019-02-14T09:49:23.933Z,376
2019-02-14T09:50:31.142Z,375
2019-02-14T09:51:38.337Z,374
2019-02-14T09:52:45.531Z,372
2019-02-14T09:53:52.733Z,373
2019-02-14T09:54:59.919Z,373
2019-02-14T09:56:07.134Z,372
2019-02-14T09:57:14.326Z,372
2019-02-14T09:58:23.646Z,372
2019-02-14T09:59:30.846Z,370
2019-02-14T10:00:38.032Z,369
2019-02-14T10:01:44.966Z,370
2019-02-14T10:02:52.170Z,370
2019-02-14T10:03:59.377Z,369
2019-02-14T10:05:06.327Z,370
2019-02-14T10:06:13.506Z,368
2019-02-14T10:07:20.427Z,371
2019-02-14T10:08:27.669Z,370
2019-02-14T10:09:34.877Z,370
2019-02-14T10:10:41.789Z,372
2019-02-14T10:11:48.991Z,373
2019-02-14T10:12:56.175Z,374
2019-02-14T10:14:04.734Z,373
2019-02-14T10:15:11.664Z,374
2019-02-14T10:16:18.863Z,376
2019-02-14T10:17:25.510Z,376
2019-02-14T10:18:32.707Z,376
2019-02-14T10:19:39.634Z,375
2019-02-14T10:20:46.551Z,375
2019-02-14T10:21:53.742Z,375
2019-02-14T10:23:00.637Z,375
2019-02-14T10:24:07.839Z,376
2019-02-14T10:25:15.035Z,374
2019-02-14T10:26:22.228Z,373
2019-02-14T10:27:29.143Z,372
2019-02-14T10:28:36.343Z,373
2019-02-14T10:29:43.532Z,372
2019-02-14T10:30:50.454Z,373
2019-02-14T10:31:57.647Z,371
2019-02-14T10:33:04.844Z,370
2019-02-14T10:34:12.035Z,369
2019-02-14T10:35:19.236Z,368
2019-02-14T10:36:26.426Z,367
2019-02-14T10:37:33.626Z,369
2019-02-14T10:38:40.829Z,370
2019-02-14T10:39:47.753Z,371
2019-02-14T10:40:54.947Z,368
2019-02-14T10:42:02.141Z,366
2019-02-14T10:43:09.169Z,367
2019-02-14T10:44:16.362Z,366
2019-02-14T10:45:23.606Z,367
2019-02-14T10:46:30.519Z,368
2019-02-14T10:47:37.727Z,368
2019-02-14T10:48:44.697Z,368
2019-02-14T10:49:51.609Z,368
2019-02-14T10:50:58.811Z,367
2019-02-14T10:52:06.011Z,365
2019-02-14T10:53:13.352Z,366
2019-02-14T10:54:20.556Z,367
2019-02-14T10:55:27.773Z,367
2019-02-14T10:56:34.705Z,363
2019-02-14T10:57:41.633Z,362
2019-02-14T10:58:48.828Z,361
2019-02-14T10:59:56.028Z,359
2019-02-14T11:01:03.222Z,358
2019-02-14T11:02:10.418Z,357
2019-02-14T11:03:17.618Z,357
2019-02-14T11:04:24.828Z,354
2019-02-14T11:05:32.034Z,352
2019-02-14T11:06:39.239Z,355
2019-02-14T11:07:46.445Z,356
2019-02-14T11:08:53.640Z,359
2019-02-14T11:10:00.840Z,359
2019-02-14T11:11:08.038Z,361
2019-02-14T11:12:15.231Z,361
2019-02-14T11:13:22.156Z,362
2019-02-14T11:14:30.464Z,363
2019-02-14T11:15:37.671Z,363
2019-02-14T11:16:44.594Z,364
2019-02-14T11:17:51.789Z,363
2019-02-14T11:18:58.438Z,364
2019-02-14T11:20:05.633Z,363
2019-02-14T11:21:12.554Z,361
2019-02-14T11:22:19.796Z,361
2019-02-14T11:23:26.452Z,362
2019-02-14T11:24:33.651Z,363
2019-02-14T11:25:40.855Z,363
2019-02-14T11:26:47.232Z,363
2019-02-14T11:27:54.154Z,363
2019-02-14T11:29:01.369Z,361
2019-02-14T11:30:08.571Z,362
2019-02-14T11:31:15.501Z,363
2019-02-14T11:32:22.699Z,362
2019-02-14T11:33:29.899Z,360
2019-02-14T11:34:37.101Z,361
2019-02-14T11:35:44.309Z,361
2019-02-14T11:36:51.233Z,362
2019-02-14T11:37:58.436Z,360
2019-02-14T11:39:05.363Z,357
2019-02-14T11:40:12.563Z,356
2019-02-14T11:41:19.875Z,355
2019-02-14T11:42:27.075Z,357
2019-02-14T11:43:34.285Z,358
2019-02-14T11:44:41.215Z,360
2019-02-14T11:45:48.408Z,360
2019-02-14T11:46:55.333Z,360
2019-02-14T11:48:02.536Z,361
2019-02-14T11:49:09.733Z,362
2019-02-14T11:50:16.944Z,363
2019-02-14T11:51:23.874Z,365
2019-02-14T11:52:31.076Z,364
2019-02-14T11:53:38.278Z,365
2019-02-14T11:54:45.474Z,365
2019-02-14T11:55:52.664Z,364
2019-02-14T11:56:59.313Z,365
2019-02-14T11:58:06.240Z,362
2019-02-14T11:59:13.438Z,363
2019-02-14T12:00:20.641Z,358
2019-02-14T12:01:27.841Z,353
2019-02-14T12:02:34.765Z,348
2019-02-14T12:03:41.965Z,346
2019-02-14T12:04:48.901Z,345
2019-02-14T12:05:55.824Z,345
2019-02-14T12:07:03.026Z,352
2019-02-14T12:08:10.613Z,356
2019-02-14T12:09:17.817Z,358
2019-02-14T12:10:24.743Z,357
2019-02-14T12:11:31.944Z,357
2019-02-14T12:12:39.144Z,350
2019-02-14T12:13:46.368Z,344
2019-02-14T12:14:53.605Z,340
2019-02-14T12:16:00.803Z,337
2019-02-14T12:17:22.647Z,335
2019-02-14T12:18:29.845Z,335
2019-02-14T12:19:37.051Z,336
2019-02-14T12:20:44.251Z,341
2019-02-14T12:21:51.453Z,340
2019-02-14T12:22:58.391Z,341
2019-02-14T12:24:05.591Z,340
2019-02-14T12:25:12.519Z,342
2019-02-14T12:26:19.718Z,342
2019-02-14T12:27:26.654Z,341
2019-02-14T12:28:33.856Z,340
2019-02-14T12:29:41.058Z,336
2019-02-14T12:30:47.984Z,336
2019-02-14T12:31:55.214Z,336
2019-02-14T12:33:02.419Z,337
2019-02-14T12:34:09.620Z,336
2019-02-14T12:35:16.815Z,335
2019-02-14T12:36:24.021Z,338
2019-02-14T12:37:31.264Z,336
2019-02-14T12:38:38.500Z,337
2019-02-14T12:39:45.434Z,335
2019-02-14T12:40:52.635Z,334
2019-02-14T12:41:59.832Z,335
2019-02-14T12:43:07.044Z,337
2019-02-14T12:44:14.245Z,335
2019-02-14T12:45:26.656Z,337
2019-02-14T12:46:33.848Z,341
2019-02-14T12:47:40.777Z,340
2019-02-14T12:48:47.707Z,339
2019-02-14T12:49:54.633Z,336
2019-02-14T12:51:01.832Z,335
2019-02-14T12:52:08.479Z,333
2019-02-14T12:53:15.685Z,334
2019-02-14T12:54:22.887Z,331
2019-02-14T12:55:30.088Z,332
2019-02-14T12:56:37.288Z,334
2019-02-14T12:57:44.489Z,335
2019-02-14T12:58:51.681Z,331
2019-02-14T12:59:58.882Z,335
2019-02-14T13:01:06.083Z,330
2019-02-14T13:02:13.283Z,329
2019-02-14T13:03:20.485Z,328
2019-02-14T13:04:27.689Z,330
2019-02-14T13:05:34.886Z,328
2019-02-14T13:06:42.088Z,331
2019-02-14T13:07:49.284Z,330
2019-02-14T13:08:56.480Z,327
2019-02-14T13:10:03.684Z,320
2019-02-14T13:11:10.618Z,316
2019-02-14T13:12:17.828Z,316
2019-02-14T13:13:25.025Z,316
2019-02-14T13:14:31.966Z,317
2019-02-14T13:15:39.178Z,320
2019-02-14T13:16:46.387Z,321
2019-02-14T13:17:53.585Z,324
2019-02-14T13:19:00.788Z,324
2019-02-14T13:20:07.994Z,321
2019-02-14T13:21:15.195Z,318
2019-02-14T13:22:22.401Z,323
2019-02-14T13:23:29.605Z,323
2019-02-14T13:24:36.823Z,328
2019-02-14T13:25:44.031Z,323
2019-02-14T13:26:51.232Z,323
2019-02-14T13:27:58.456Z,326
2019-02-14T13:29:05.685Z,329
2019-02-14T13:30:12.882Z,331
2019-02-14T13:31:20.130Z,331
2019-02-14T13:32:27.340Z,328
2019-02-14T13:33:34.554Z,327
2019-02-14T13:34:41.752Z,325
2019-02-14T13:35:48.967Z,323
2019-02-14T13:37:02.823Z,322
2019-02-14T13:38:09.769Z,328
2019-02-14T13:39:16.706Z,331
2019-02-14T13:40:23.946Z,335
2019-02-14T13:41:32.387Z,335
2019-02-14T13:42:39.591Z,333
2019-02-14T13:43:46.827Z,332
2019-02-14T13:44:54.045Z,326
2019-02-14T13:46:00.982Z,324
2019-02-14T13:47:08.175Z,321
2019-02-14T13:48:15.390Z,322
2019-02-14T13:49:22.612Z,326
2019-02-14T13:50:29.548Z,324
2019-02-14T13:51:36.750Z,320
2019-02-14T13:52:43.955Z,319
2019-02-14T13:53:51.153Z,318
2019-02-14T13:54:58.085Z,319
2019-02-14T13:56:05.018Z,317
2019-02-14T13:57:12.224Z,317
2019-02-14T13:58:19.430Z,323
2019-02-14T13:59:26.642Z,325
2019-02-14T14:00:33.585Z,327
2019-02-14T14:01:40.780Z,330
2019-02-14T14:02:47.731Z,330
2019-02-14T14:03:54.947Z,330
2019-02-14T14:05:02.159Z,330
2019-02-14T14:06:09.395Z,332
2019-02-14T14:07:16.343Z,333
2019-02-14T14:08:23.544Z,332
2019-02-14T14:09:53.582Z,329
2019-02-14T14:11:00.794Z,329
2019-02-14T14:12:08.006Z,325
2019-02-14T14:13:15.217Z,322
2019-02-14T14:14:22.151Z,321
2019-02-14T14:15:29.355Z,318
2019-02-14T14:16:36.297Z,317
2019-02-14T14:17:43.506Z,320
2019-02-14T14:18:50.719Z,325
2019-02-14T14:19:57.932Z,330
2019-02-14T14:21:04.868Z,333
2019-02-14T14:22:12.109Z,331
2019-02-14T14:23:20.936Z,326
2019-02-14T14:24:28.146Z,323
2019-02-14T14:25:35.083Z,322
2019-02-14T14:26:42.287Z,320
2019-02-14T14:27:49.490Z,321
2019-02-14T14:28:56.421Z,323
2019-02-14T14:30:03.634Z,324
2019-02-14T14:31:10.843Z,327
2019-02-14T14:32:18.044Z,329
2019-02-14T14:33:25.247Z,323
2019-02-14T14:34:32.454Z,322
2019-02-14T14:35:39.658Z,322
2019-02-14T14:36:46.858Z,323
2019-02-14T14:37:54.475Z,324
2019-02-14T14:39:01.674Z,320
2019-02-14T14:40:08.878Z,322
2019-02-14T14:41:16.082Z,325
2019-02-14T14:42:23.287Z,324
2019-02-14T14:43:30.494Z,323
2019-02-14T14:44:37.697Z,321
2019-02-14T14:45:44.898Z,325
2019-02-14T14:46:52.103Z,328
2019-02-14T14:47:59.310Z,328
2019-02-14T14:49:06.524Z,326
2019-02-14T14:50:13.730Z,323
2019-02-14T14:51:20.659Z,323
2019-02-14T14:52:27.876Z,322
2019-02-14T14:53:35.084Z,320
2019-02-14T14:54:42.292Z,323
2019-02-14T14:55:49.240Z,326
2019-02-14T14:56:56.449Z,326
2019-02-14T14:58:03.649Z,328
2019-02-14T14:59:10.846Z,326
2019-02-14T15:00:18.070Z,323
2019-02-14T15:01:25.285Z,322
2019-02-14T15:02:32.481Z,322
2019-02-14T15:03:41.607Z,324
2019-02-14T15:04:48.534Z,327
2019-02-14T15:05:55.204Z,329
2019-02-14T15:07:02.409Z,327
2019-02-14T15:08:09.347Z,327
2019-02-14T15:09:16.568Z,326
2019-02-14T15:10:23.492Z,325
2019-02-14T15:11:30.708Z,325
2019-02-14T15:12:37.917Z,327
2019-02-14T15:13:44.852Z,329
2019-02-14T15:14:52.063Z,331
2019-02-14T15:15:59.271Z,333
2019-02-14T15:17:06.489Z,332
2019-02-14T15:18:13.696Z,333
2019-02-14T15:19:20.642Z,335
2019-02-14T15:20:27.846Z,337
2019-02-14T15:21:34.791Z,335
2019-02-14T15:22:41.735Z,335
2019-02-14T15:23:48.948Z,333
2019-02-14T15:24:56.170Z,338
2019-02-14T15:26:03.381Z,337